首页
METAR-TAF:

METAR-TAF

机场 :

努美阿國際機場, 新喀里多尼亚

纬度: 22-01S, 经度: 166-13E, 海拔: 16米

当前天气观测

该预报发布于11分钟前的00:00 UTC
风速4节,风向南转西南,在南转南东西之间变化
温度 24°C
湿度 47%
气压 1016 hPa
能见度10公里或以上
1500米以下无云,无积雨云

METAR: NWWW 170000Z AUTO 21004KT 160V270 CAVOK 24/12 Q1016 NOSIG

时间: 11:11 (00:11 UTC)

预报

该预报发布于1小时和11分钟前的23:00 UTC
预报有效从17日的 00点(UTC)到 17日的 24点(UTC)
风速8节,风向
能见度10公里或以上
少量云层高于5000英尺

TAF: NWWW 162300Z 1700/1724 18008KT 9999 FEW050

超过4000个机场的气象观测和天气预报(METAR&TAF报告)。

可查询的气象台以黄色和红色小点在地图上表示。

将鼠标移到小点上方,可查看气象台名称。

然后点击查看天气观测和预报。

如需切换地图:点击带黑十字的绿色按钮放大地图;点击带横线的绿色按钮缩小地图;或者点击绿色箭头查看邻近地区的地图。


METAR-TAF: